createdAt,value
2023-04-25T00:00:07.055Z,97.77
2023-04-25T00:00:17.036Z,97.77
2023-04-25T00:00:27.035Z,97.77
2023-04-25T00:00:37.037Z,97.77
2023-04-25T00:00:47.037Z,97.77
2023-04-25T00:00:57.035Z,97.77
2023-04-25T00:01:07.044Z,97.77
2023-04-25T00:01:17.044Z,97.77
2023-04-25T00:01:27.033Z,97.67
2023-04-25T00:01:37.127Z,97.77
2023-04-25T00:01:47.037Z,97.77
2023-04-25T00:01:57.048Z,97.77
2023-04-25T00:02:07.079Z,97.77
2023-04-25T00:02:17.134Z,97.67
2023-04-25T00:02:27.070Z,97.67
2023-04-25T00:02:37.193Z,97.67
2023-04-25T00:02:47.187Z,97.67
2023-04-25T00:02:57.204Z,97.67
2023-04-25T00:03:07.175Z,97.67
2023-04-25T00:03:17.244Z,97.67
2023-04-25T00:03:27.237Z,97.67
2023-04-25T00:03:37.181Z,97.67
2023-04-25T00:03:47.402Z,97.77
2023-04-25T00:03:57.715Z,97.88
2023-04-25T00:04:07.219Z,97.88
2023-04-25T00:04:27.260Z,97.98
2023-04-25T00:04:37.282Z,97.98
2023-04-25T00:04:47.204Z,97.98
2023-04-25T00:04:57.257Z,97.98
2023-04-25T00:05:07.294Z,98.08
2023-04-25T00:05:17.309Z,98.08
2023-04-25T00:05:27.089Z,98.08
2023-04-25T00:05:37.089Z,98.08
2023-04-25T00:05:47.228Z,98.08
2023-04-25T00:05:57.073Z,98.08
2023-04-25T00:06:07.098Z,98.08
2023-04-25T00:06:17.059Z,97.98
2023-04-25T00:06:27.060Z,98.08
2023-04-25T00:06:37.078Z,98.08
2023-04-25T00:06:47.185Z,98.08
2023-04-25T00:06:57.063Z,98.08
2023-04-25T00:07:07.064Z,98.08
2023-04-25T00:07:17.069Z,98.08
2023-04-25T00:07:27.070Z,98.08
2023-04-25T00:07:37.068Z,98.19
2023-04-25T00:07:57.068Z,98.19
2023-04-25T00:08:07.067Z,98.19
2023-04-25T00:08:17.079Z,98.29
2023-04-25T00:08:27.073Z,98.29
2023-04-25T00:08:37.074Z,98.29
2023-04-25T00:08:47.071Z,98.39
2023-04-25T00:08:57.071Z,98.39
2023-04-25T00:09:07.085Z,98.50
2023-04-25T00:09:27.075Z,98.50
2023-04-25T00:09:37.085Z,98.50
2023-04-25T00:09:47.091Z,98.50
2023-04-25T00:09:57.077Z,98.60
2023-04-25T00:10:07.082Z,98.65
2023-04-25T00:10:17.110Z,98.65
2023-04-25T00:10:27.078Z,98.65
2023-04-25T00:10:37.086Z,98.65
2023-04-25T00:10:47.080Z,98.75
2023-04-25T00:10:57.089Z,98.75
2023-04-25T00:11:07.088Z,98.75
2023-04-25T00:11:27.093Z,98.75
2023-04-25T00:11:37.104Z,98.85
2023-04-25T00:11:47.094Z,98.85
2023-04-25T00:11:57.101Z,98.85
2023-04-25T00:12:07.091Z,98.85
2023-04-25T00:12:17.086Z,98.85
2023-04-25T00:12:27.109Z,98.85
2023-04-25T00:12:47.096Z,98.85
2023-04-25T00:12:57.089Z,98.96
2023-04-25T00:13:07.089Z,98.96
2023-04-25T00:13:17.102Z,98.96
2023-04-25T00:13:27.102Z,98.96
2023-04-25T00:13:37.096Z,98.96
2023-04-25T00:13:47.286Z,98.96
2023-04-25T00:13:57.103Z,98.96
2023-04-25T00:14:07.103Z,98.85
2023-04-25T00:14:27.103Z,98.96
2023-04-25T00:14:37.104Z,98.85
2023-04-25T00:14:47.100Z,98.85
2023-04-25T00:14:57.110Z,98.85
2023-04-25T00:15:07.111Z,98.85
2023-04-25T00:15:17.098Z,98.85
2023-04-25T00:15:27.106Z,98.85
2023-04-25T00:15:37.106Z,98.85
2023-04-25T00:15:47.117Z,98.85
2023-04-25T00:16:07.191Z,98.85
2023-04-25T00:16:17.181Z,98.85
2023-04-25T00:16:27.182Z,98.85
2023-04-25T00:16:37.223Z,98.71
2023-04-25T00:16:47.105Z,98.75
2023-04-25T00:16:57.111Z,98.75
2023-04-25T00:17:07.130Z,98.85
2023-04-25T00:17:17.116Z,98.85
2023-04-25T00:17:27.142Z,98.96
2023-04-25T00:17:47.153Z,98.91
2023-04-25T00:17:57.155Z,98.91
2023-04-25T00:18:07.349Z,98.91
2023-04-25T00:18:17.149Z,98.91
2023-04-25T00:18:27.115Z,98.96
2023-04-25T00:18:37.123Z,98.81
2023-04-25T00:18:47.148Z,98.81
2023-04-25T00:18:57.122Z,98.96
2023-04-25T00:19:07.116Z,98.91
2023-04-25T00:19:27.120Z,98.81
2023-04-25T00:19:37.121Z,98.81
2023-04-25T00:19:47.132Z,98.71
2023-04-25T00:19:57.134Z,98.71
2023-04-25T00:20:07.122Z,98.71
2023-04-25T00:20:17.124Z,98.60
2023-04-25T00:20:27.147Z,98.60
2023-04-25T00:20:37.129Z,98.60
2023-04-25T00:20:47.135Z,98.60
2023-04-25T00:20:57.135Z,98.60
2023-04-25T00:21:07.153Z,98.60
2023-04-25T00:21:17.128Z,98.71
2023-04-25T00:21:27.133Z,98.71
2023-04-25T00:21:47.167Z,98.71
2023-04-25T00:21:57.136Z,98.60
2023-04-25T00:22:07.144Z,98.60
2023-04-25T00:22:17.134Z,98.60
2023-04-25T00:22:27.210Z,98.60
2023-04-25T00:22:37.141Z,98.60
2023-04-25T00:22:47.145Z,98.60
2023-04-25T00:22:57.142Z,98.60
2023-04-25T00:23:07.149Z,98.60
2023-04-25T00:23:17.149Z,98.60
2023-04-25T00:23:28.031Z,98.60
2023-04-25T00:23:37.154Z,98.60
2023-04-25T00:23:47.140Z,98.60
2023-04-25T00:23:57.141Z,98.50
2023-04-25T00:24:07.142Z,98.50
2023-04-25T00:24:27.142Z,98.50
2023-04-25T00:24:37.143Z,98.50
2023-04-25T00:24:47.152Z,98.50
2023-04-25T00:24:57.149Z,98.60
2023-04-25T00:25:07.153Z,98.60
2023-04-25T00:25:17.147Z,98.60
2023-04-25T00:25:27.151Z,98.60
2023-04-25T00:25:37.153Z,98.60
2023-04-25T00:25:47.154Z,98.60
2023-04-25T00:25:57.151Z,98.60
2023-04-25T00:26:17.163Z,98.60
2023-04-25T00:26:27.156Z,98.50
2023-04-25T00:26:37.168Z,98.50
2023-04-25T00:26:47.163Z,98.50
2023-04-25T00:26:57.169Z,98.60
2023-04-25T00:27:07.161Z,98.60
2023-04-25T00:27:17.182Z,98.60
2023-04-25T00:27:27.160Z,98.60
2023-04-25T00:27:37.158Z,98.60
2023-04-25T00:27:47.159Z,98.60
2023-04-25T00:27:57.164Z,98.60
2023-04-25T00:28:07.164Z,98.60
2023-04-25T00:28:17.178Z,98.60
2023-04-25T00:28:27.167Z,98.71
2023-04-25T00:28:37.169Z,98.71
2023-04-25T00:28:47.167Z,98.71
2023-04-25T00:28:57.165Z,98.81
2023-04-25T00:29:07.164Z,98.81
2023-04-25T00:29:27.169Z,98.81
2023-04-25T00:29:37.178Z,98.71
2023-04-25T00:29:47.171Z,98.60
2023-04-25T00:29:57.168Z,98.60
2023-04-25T00:30:07.166Z,98.60
2023-04-25T00:30:17.174Z,98.60
2023-04-25T00:30:27.173Z,98.60
2023-04-25T00:30:37.175Z,98.50
2023-04-25T00:30:47.172Z,98.39
2023-04-25T00:30:57.173Z,98.39
2023-04-25T00:31:07.200Z,98.39
2023-04-25T00:31:17.236Z,98.39
2023-04-25T00:31:27.215Z,98.50
2023-04-25T00:31:37.244Z,98.39
2023-04-25T00:31:47.204Z,98.39
2023-04-25T00:31:57.339Z,98.39
2023-04-25T00:32:17.182Z,98.50
2023-04-25T00:32:27.188Z,98.50
2023-04-25T00:32:37.238Z,98.39
2023-04-25T00:32:47.214Z,98.39
2023-04-25T00:32:57.213Z,98.50
2023-04-25T00:33:07.292Z,98.50
2023-04-25T00:33:17.194Z,98.50
2023-04-25T00:33:27.188Z,98.50
2023-04-25T00:33:37.191Z,98.50
2023-04-25T00:33:47.189Z,98.50
2023-04-25T00:33:57.184Z,98.50
2023-04-25T00:34:07.197Z,98.60
2023-04-25T00:34:27.196Z,98.60
2023-04-25T00:34:37.200Z,98.60
2023-04-25T00:34:47.191Z,98.60
2023-04-25T00:34:57.191Z,98.60
2023-04-25T00:35:07.196Z,98.60
2023-04-25T00:35:17.192Z,98.60
2023-04-25T00:35:27.201Z,98.60
2023-04-25T00:35:37.206Z,98.60
2023-04-25T00:35:47.200Z,98.71
2023-04-25T00:35:57.199Z,98.71
2023-04-25T00:36:07.204Z,98.60
2023-04-25T00:36:17.203Z,98.60
2023-04-25T00:36:27.231Z,98.60
2023-04-25T00:36:37.230Z,98.60
2023-04-25T00:36:47.213Z,98.60
2023-04-25T00:36:57.207Z,98.60
2023-04-25T00:37:07.212Z,98.60
2023-04-25T00:37:27.209Z,98.71
2023-04-25T00:37:37.213Z,98.71
2023-04-25T00:37:47.205Z,98.71
2023-04-25T00:37:57.212Z,98.71
2023-04-25T00:38:07.216Z,98.71
2023-04-25T00:38:17.219Z,98.71
2023-04-25T00:38:27.205Z,98.60
2023-04-25T00:38:47.225Z,98.60
2023-04-25T00:38:57.222Z,98.60
2023-04-25T00:39:07.214Z,98.71
2023-04-25T00:39:17.220Z,98.71
2023-04-25T00:39:27.228Z,98.81
2023-04-25T00:39:37.221Z,98.81
2023-04-25T00:39:47.227Z,98.71
2023-04-25T00:39:57.225Z,98.71
2023-04-25T00:40:07.258Z,98.71
2023-04-25T00:40:17.239Z,98.60
2023-04-25T00:40:27.225Z,98.60
2023-04-25T00:40:37.224Z,98.60
2023-04-25T00:40:47.227Z,98.60
2023-04-25T00:40:57.231Z,98.65
2023-04-25T00:41:07.229Z,98.65
2023-04-25T00:41:17.236Z,98.60
2023-04-25T00:41:27.230Z,98.65
2023-04-25T00:41:37.229Z,98.75
2023-04-25T00:41:47.234Z,98.75
2023-04-25T00:41:57.236Z,98.75
2023-04-25T00:42:07.253Z,98.75
2023-04-25T00:42:17.235Z,98.75
2023-04-25T00:42:27.243Z,98.75
2023-04-25T00:42:37.234Z,98.75
2023-04-25T00:42:47.237Z,98.75
2023-04-25T00:42:57.239Z,98.75
2023-04-25T00:43:07.240Z,98.85
2023-04-25T00:43:17.255Z,98.85
2023-04-25T00:43:27.243Z,98.85
2023-04-25T00:43:37.242Z,98.85
2023-04-25T00:43:47.281Z,98.96
2023-04-25T00:43:57.246Z,98.96
2023-04-25T00:44:07.245Z,98.96
2023-04-25T00:44:27.244Z,98.96
2023-04-25T00:44:37.242Z,98.96
2023-04-25T00:44:47.244Z,98.96
2023-04-25T00:44:57.250Z,98.96
2023-04-25T00:45:07.254Z,98.96
2023-04-25T00:45:17.247Z,98.96
2023-04-25T00:45:27.248Z,98.96
2023-04-25T00:45:47.248Z,99.06
2023-04-25T00:45:57.250Z,99.06
2023-04-25T00:46:07.251Z,99.06
2023-04-25T00:46:17.291Z,99.16
2023-04-25T00:46:27.290Z,99.16
2023-04-25T00:46:37.275Z,99.27
2023-04-25T00:46:47.269Z,99.27
2023-04-25T00:46:57.278Z,99.27
2023-04-25T00:47:07.298Z,99.27
2023-04-25T00:47:17.272Z,99.16
2023-04-25T00:47:27.272Z,99.16
2023-04-25T00:47:37.291Z,99.06
2023-04-25T00:47:47.270Z,99.06
2023-04-25T00:47:57.301Z,99.06
2023-04-25T00:48:07.281Z,99.06
2023-04-25T00:48:17.274Z,99.06
2023-04-25T00:48:27.280Z,99.06
2023-04-25T00:48:37.268Z,99.06
2023-04-25T00:48:47.265Z,99.06
2023-04-25T00:48:57.270Z,99.06
2023-04-25T00:49:07.280Z,99.06
2023-04-25T00:49:27.282Z,99.16
2023-04-25T00:49:37.287Z,99.16
2023-04-25T00:49:47.321Z,99.16
2023-04-25T00:49:57.280Z,99.16
2023-04-25T00:50:07.285Z,99.27
2023-04-25T00:50:17.280Z,99.27
2023-04-25T00:50:27.291Z,99.27
2023-04-25T00:50:47.311Z,99.27
2023-04-25T00:50:57.282Z,99.27
2023-04-25T00:51:07.288Z,99.16
2023-04-25T00:51:17.329Z,99.16
2023-04-25T00:51:27.283Z,99.16
2023-04-25T00:51:37.286Z,99.16
2023-04-25T00:51:47.281Z,99.16
2023-04-25T00:51:57.289Z,99.27
2023-04-25T00:52:07.284Z,99.16
2023-04-25T00:52:17.293Z,99.27
2023-04-25T00:52:27.291Z,99.27
2023-04-25T00:52:37.299Z,99.27
2023-04-25T00:52:47.298Z,99.27
2023-04-25T00:52:57.291Z,99.27
2023-04-25T00:53:07.296Z,99.27
2023-04-25T00:53:17.307Z,99.27
2023-04-25T00:53:27.302Z,99.27
2023-04-25T00:53:37.308Z,99.27
2023-04-25T00:53:57.298Z,99.27
2023-04-25T00:54:07.302Z,99.27
2023-04-25T00:54:17.300Z,99.37
2023-04-25T00:54:27.313Z,99.37
2023-04-25T00:54:37.309Z,99.37
2023-04-25T00:54:47.297Z,99.37
2023-04-25T00:54:57.302Z,99.37
2023-04-25T00:55:07.306Z,99.37
2023-04-25T00:55:17.303Z,99.48
2023-04-25T00:55:27.306Z,99.37
2023-04-25T00:55:37.306Z,99.37
2023-04-25T00:55:47.303Z,99.27
2023-04-25T00:56:07.303Z,99.27
2023-04-25T00:56:17.304Z,99.27
2023-04-25T00:56:27.301Z,99.27
2023-04-25T00:56:37.342Z,99.16
2023-04-25T00:56:47.319Z,99.16
2023-04-25T00:56:57.305Z,99.27
2023-04-25T00:57:07.308Z,99.27
2023-04-25T00:57:17.309Z,99.27
2023-04-25T00:57:27.304Z,99.27
2023-04-25T00:57:37.311Z,99.27
2023-04-25T00:57:47.314Z,99.27
2023-04-25T00:57:57.304Z,99.27
2023-04-25T00:58:07.317Z,99.27
2023-04-25T00:58:17.322Z,99.27
2023-04-25T00:58:27.316Z,99.27
2023-04-25T00:58:37.320Z,99.27
2023-04-25T00:58:47.316Z,99.27
2023-04-25T00:58:57.316Z,99.32
2023-04-25T00:59:07.322Z,99.32
2023-04-25T00:59:27.316Z,99.27
2023-04-25T00:59:37.317Z,99.42
2023-04-25T00:59:47.310Z,99.42
2023-04-25T00:59:57.324Z,99.42
2023-04-25T01:00:07.314Z,99.52
2023-04-25T01:00:17.339Z,99.52
2023-04-25T01:00:27.315Z,99.52
2023-04-25T01:00:37.364Z,99.63
2023-04-25T01:00:47.381Z,99.63
2023-04-25T01:00:57.364Z,99.63
2023-04-25T01:01:07.399Z,99.73
2023-04-25T01:01:17.336Z,99.73
2023-04-25T01:01:27.429Z,99.63
2023-04-25T01:01:47.348Z,99.63
2023-04-25T01:01:57.389Z,99.63
2023-04-25T01:02:07.367Z,99.63
2023-04-25T01:02:17.414Z,99.63
2023-04-25T01:02:27.606Z,99.63
2023-04-25T01:02:37.459Z,99.52
2023-04-25T01:02:47.500Z,99.63
2023-04-25T01:02:57.546Z,99.58
2023-04-25T01:03:07.420Z,99.63
2023-04-25T01:03:17.566Z,99.63
2023-04-25T01:03:27.607Z,99.48
2023-04-25T01:03:37.639Z,99.52
2023-04-25T01:03:47.492Z,99.52
2023-04-25T01:03:57.427Z,99.52
2023-04-25T01:04:17.446Z,99.52
2023-04-25T01:04:27.367Z,99.37
2023-04-25T01:04:37.347Z,99.37
2023-04-25T01:04:47.355Z,99.37
2023-04-25T01:04:57.347Z,99.48
2023-04-25T01:05:07.343Z,99.48
2023-04-25T01:05:17.348Z,99.48
2023-04-25T01:05:27.352Z,99.48
2023-04-25T01:05:37.373Z,99.58
2023-04-25T01:05:47.360Z,99.58
2023-04-25T01:05:57.353Z,99.58
2023-04-25T01:06:07.355Z,99.58
2023-04-25T01:06:17.360Z,99.58
2023-04-25T01:06:27.350Z,99.58
2023-04-25T01:06:37.366Z,99.48
2023-04-25T01:06:47.357Z,99.48
2023-04-25T01:06:57.356Z,99.48
2023-04-25T01:07:07.370Z,99.37
2023-04-25T01:07:17.374Z,99.37
2023-04-25T01:07:27.354Z,99.37
2023-04-25T01:07:47.357Z,99.48
2023-04-25T01:07:57.377Z,99.48
2023-04-25T01:08:07.360Z,99.48
2023-04-25T01:08:17.381Z,99.37
2023-04-25T01:08:27.363Z,99.27
2023-04-25T01:08:37.364Z,99.27
2023-04-25T01:08:47.374Z,99.27
2023-04-25T01:09:07.365Z,99.27
2023-04-25T01:09:17.368Z,99.27
2023-04-25T01:09:27.375Z,99.27
2023-04-25T01:09:37.367Z,99.27
2023-04-25T01:09:47.372Z,99.16
2023-04-25T01:09:57.365Z,99.16
2023-04-25T01:10:07.389Z,99.16
2023-04-25T01:10:17.374Z,99.16
2023-04-25T01:10:27.375Z,99.16
2023-04-25T01:10:37.375Z,99.16
2023-04-25T01:10:47.372Z,99.06
2023-04-25T01:11:07.374Z,99.16
2023-04-25T01:11:17.400Z,99.16
2023-04-25T01:11:27.377Z,99.16
2023-04-25T01:11:37.391Z,99.21
2023-04-25T01:11:47.379Z,99.21
2023-04-25T01:11:57.378Z,99.16
2023-04-25T01:12:07.379Z,99.21
2023-04-25T01:12:17.382Z,99.16
2023-04-25T01:12:27.378Z,99.16
2023-04-25T01:12:37.385Z,99.16
2023-04-25T01:12:47.384Z,99.21
2023-04-25T01:12:57.379Z,99.21
2023-04-25T01:13:17.393Z,99.32
2023-04-25T01:13:27.377Z,99.32
2023-04-25T01:13:37.388Z,99.32
2023-04-25T01:13:47.385Z,99.32
2023-04-25T01:13:57.392Z,99.32
2023-04-25T01:14:07.382Z,99.32
2023-04-25T01:14:27.403Z,99.32
2023-04-25T01:14:37.393Z,99.32
2023-04-25T01:14:47.403Z,99.42
2023-04-25T01:14:57.390Z,99.42
2023-04-25T01:15:07.401Z,99.42
2023-04-25T01:15:17.390Z,99.42
2023-04-25T01:15:27.388Z,99.42
2023-04-25T01:15:37.393Z,99.42
2023-04-25T01:15:47.402Z,99.42
2023-04-25T01:15:57.397Z,99.42
2023-04-25T01:16:07.456Z,99.32
2023-04-25T01:16:17.460Z,99.32
2023-04-25T01:16:27.432Z,99.32
2023-04-25T01:16:37.435Z,99.32
2023-04-25T01:16:47.483Z,99.32
2023-04-25T01:16:57.446Z,99.32
2023-04-25T01:17:07.449Z,99.32
2023-04-25T01:17:17.400Z,99.32
2023-04-25T01:17:27.439Z,99.32
2023-04-25T01:17:37.421Z,99.32
2023-04-25T01:17:47.423Z,99.32
2023-04-25T01:17:57.420Z,99.32
2023-04-25T01:18:17.413Z,99.32
2023-04-25T01:18:27.419Z,99.32
2023-04-25T01:18:37.408Z,99.32
2023-04-25T01:18:47.408Z,99.21
2023-04-25T01:18:57.411Z,99.21
2023-04-25T01:19:07.406Z,99.21
2023-04-25T01:19:27.409Z,99.32
2023-04-25T01:19:37.409Z,99.32
2023-04-25T01:19:47.410Z,99.32
2023-04-25T01:19:57.434Z,99.42
2023-04-25T01:20:07.415Z,99.37
2023-04-25T01:20:17.421Z,99.42
2023-04-25T01:20:27.413Z,99.48
2023-04-25T01:20:37.426Z,99.37
2023-04-25T01:20:47.426Z,99.42
2023-04-25T01:20:57.421Z,99.27
2023-04-25T01:21:07.417Z,99.21
2023-04-25T01:21:17.437Z,99.16
2023-04-25T01:21:27.421Z,99.06
2023-04-25T01:21:47.425Z,98.96
2023-04-25T01:21:57.421Z,99.06
2023-04-25T01:22:07.425Z,99.06
2023-04-25T01:22:17.422Z,99.06
2023-04-25T01:22:27.439Z,99.16
2023-04-25T01:22:37.429Z,99.16
2023-04-25T01:22:47.428Z,99.16
2023-04-25T01:22:57.431Z,99.16
2023-04-25T01:23:07.575Z,99.06
2023-04-25T01:23:17.446Z,99.06
2023-04-25T01:23:27.435Z,99.06
2023-04-25T01:23:37.432Z,99.06
2023-04-25T01:23:47.437Z,98.96
2023-04-25T01:23:57.440Z,98.85
2023-04-25T01:24:17.472Z,98.96
2023-04-25T01:24:27.439Z,98.96
2023-04-25T01:24:37.496Z,98.96
2023-04-25T01:24:47.435Z,98.96
2023-04-25T01:24:57.443Z,98.96
2023-04-25T01:25:07.446Z,98.85
2023-04-25T01:25:17.443Z,98.85
2023-04-25T01:25:27.452Z,98.85
2023-04-25T01:25:47.442Z,98.85
2023-04-25T01:25:57.439Z,98.85
2023-04-25T01:26:07.446Z,98.85
2023-04-25T01:26:17.446Z,98.85
2023-04-25T01:26:27.443Z,98.85
2023-04-25T01:26:37.484Z,98.85
2023-04-25T01:26:47.445Z,98.85
2023-04-25T01:26:57.456Z,98.96
2023-04-25T01:27:07.459Z,98.96
2023-04-25T01:27:17.445Z,98.96
2023-04-25T01:27:27.455Z,98.96
2023-04-25T01:27:37.452Z,98.96
2023-04-25T01:27:47.454Z,98.96
2023-04-25T01:27:57.451Z,98.96
2023-04-25T01:28:07.455Z,98.96
2023-04-25T01:28:17.464Z,98.96
2023-04-25T01:28:27.452Z,98.96
2023-04-25T01:28:37.464Z,98.85
2023-04-25T01:28:47.465Z,98.85
2023-04-25T01:28:57.469Z,98.75
2023-04-25T01:29:07.461Z,98.65
2023-04-25T01:29:27.460Z,98.65
2023-04-25T01:29:37.461Z,98.65
2023-04-25T01:29:47.469Z,98.75
2023-04-25T01:29:57.462Z,98.75
2023-04-25T01:30:07.468Z,98.75
2023-04-25T01:30:17.467Z,98.75
2023-04-25T01:30:27.469Z,98.85
2023-04-25T01:30:37.471Z,98.75
2023-04-25T01:30:47.471Z,98.75
2023-04-25T01:30:57.481Z,98.85
2023-04-25T01:31:07.465Z,98.96
2023-04-25T01:31:17.466Z,98.96
2023-04-25T01:31:27.512Z,98.96
2023-04-25T01:31:37.523Z,98.96
2023-04-25T01:31:47.503Z,98.85
2023-04-25T01:31:57.574Z,98.85
2023-04-25T01:32:07.494Z,98.85
2023-04-25T01:32:17.558Z,98.75
2023-04-25T01:32:27.502Z,98.65
2023-04-25T01:32:37.566Z,98.65
2023-04-25T01:32:47.516Z,98.65
2023-04-25T01:32:57.608Z,98.65
2023-04-25T01:33:07.494Z,98.75
2023-04-25T01:33:17.484Z,98.75
2023-04-25T01:33:27.477Z,98.75
2023-04-25T01:33:47.483Z,98.75
2023-04-25T01:33:57.491Z,98.75
2023-04-25T01:34:07.484Z,98.75
2023-04-25T01:34:17.487Z,98.75
2023-04-25T01:34:27.491Z,98.75
2023-04-25T01:34:37.495Z,98.85
2023-04-25T01:34:47.489Z,98.85
2023-04-25T01:34:57.488Z,98.85
2023-04-25T01:35:07.495Z,98.75
2023-04-25T01:35:17.487Z,98.75
2023-04-25T01:35:27.504Z,98.75
2023-04-25T01:35:37.488Z,98.75
2023-04-25T01:35:47.486Z,98.75
2023-04-25T01:36:07.523Z,98.85
2023-04-25T01:36:17.493Z,98.85
2023-04-25T01:36:27.502Z,98.85
2023-04-25T01:36:37.507Z,98.85
2023-04-25T01:36:47.495Z,98.75
2023-04-25T01:36:57.502Z,98.75
2023-04-25T01:37:07.498Z,98.85
2023-04-25T01:37:17.500Z,98.85
2023-04-25T01:37:37.497Z,98.96
2023-04-25T01:37:47.492Z,98.85
2023-04-25T01:37:57.502Z,98.85
2023-04-25T01:38:07.505Z,98.85
2023-04-25T01:38:17.554Z,98.75
2023-04-25T01:38:27.501Z,98.75
2023-04-25T01:38:37.506Z,98.75
2023-04-25T01:38:47.506Z,98.75
2023-04-25T01:38:57.503Z,98.75
2023-04-25T01:39:07.515Z,98.75
2023-04-25T01:39:27.513Z,98.75
2023-04-25T01:39:37.513Z,98.75
2023-04-25T01:39:47.503Z,98.75
2023-04-25T01:39:57.514Z,98.85
2023-04-25T01:40:07.511Z,98.85
2023-04-25T01:40:17.517Z,98.85
2023-04-25T01:40:27.517Z,98.85
2023-04-25T01:40:37.545Z,98.85
2023-04-25T01:40:47.510Z,98.75
2023-04-25T01:40:57.521Z,98.85
2023-04-25T01:41:07.577Z,98.85
2023-04-25T01:41:18.117Z,98.85
2023-04-25T01:41:27.516Z,98.75
2023-04-25T01:41:37.516Z,98.75
2023-04-25T01:41:47.519Z,98.75
2023-04-25T01:41:57.734Z,98.75
2023-04-25T01:42:07.526Z,98.75
2023-04-25T01:42:27.522Z,98.75
2023-04-25T01:42:37.534Z,98.65
2023-04-25T01:42:47.529Z,98.65
2023-04-25T01:42:57.528Z,98.54
2023-04-25T01:43:07.525Z,98.54
2023-04-25T01:43:17.534Z,98.54
2023-04-25T01:43:27.530Z,98.54
2023-04-25T01:43:37.524Z,98.65
2023-04-25T01:43:47.555Z,98.65
2023-04-25T01:43:57.535Z,98.54
2023-04-25T01:44:07.531Z,98.65
2023-04-25T01:44:17.528Z,98.65
2023-04-25T01:44:27.543Z,98.54
2023-04-25T01:44:37.535Z,98.44
2023-04-25T01:44:47.562Z,98.44
2023-04-25T01:44:57.531Z,98.44
2023-04-25T01:45:07.540Z,98.44
2023-04-25T01:45:17.534Z,98.44
2023-04-25T01:45:27.542Z,98.54
2023-04-25T01:45:37.538Z,98.54
2023-04-25T01:45:47.580Z,98.54
2023-04-25T01:45:57.570Z,98.54
2023-04-25T01:46:07.557Z,98.54
2023-04-25T01:46:17.595Z,98.54
2023-04-25T01:46:27.566Z,98.65
2023-04-25T01:46:37.610Z,98.65
2023-04-25T01:46:47.543Z,98.65
2023-04-25T01:46:57.560Z,98.65
2023-04-25T01:47:07.542Z,98.65
2023-04-25T01:47:17.541Z,98.65
2023-04-25T01:47:27.583Z,98.65
2023-04-25T01:47:37.585Z,98.65
2023-04-25T01:47:47.586Z,98.65
2023-04-25T01:47:57.584Z,98.65
2023-04-25T01:48:07.581Z,98.75
2023-04-25T01:48:17.557Z,98.75
2023-04-25T01:48:27.576Z,98.75
2023-04-25T01:48:37.553Z,98.85
2023-04-25T01:48:47.553Z,98.85
2023-04-25T01:48:57.566Z,98.85
2023-04-25T01:49:07.555Z,98.85
2023-04-25T01:49:17.567Z,98.85
2023-04-25T01:49:27.562Z,98.85
2023-04-25T01:49:37.544Z,98.85
2023-04-25T01:49:47.556Z,98.85
2023-04-25T01:49:57.568Z,98.96
2023-04-25T01:50:07.560Z,98.96
2023-04-25T01:50:17.556Z,98.96
2023-04-25T01:50:27.563Z,98.96
2023-04-25T01:50:37.565Z,98.85
2023-04-25T01:50:47.557Z,98.75
2023-04-25T01:50:57.563Z,98.75
2023-04-25T01:51:07.570Z,98.85
2023-04-25T01:51:17.569Z,98.85
2023-04-25T01:51:27.576Z,98.85
2023-04-25T01:51:37.586Z,98.85
2023-04-25T01:51:47.561Z,98.85
2023-04-25T01:51:57.576Z,98.85
2023-04-25T01:52:07.595Z,98.85
2023-04-25T01:52:17.641Z,98.85
2023-04-25T01:52:27.572Z,98.85
2023-04-25T01:52:37.608Z,98.85
2023-04-25T01:52:47.581Z,98.85
2023-04-25T01:52:57.582Z,98.75
2023-04-25T01:53:07.580Z,98.75
2023-04-25T01:53:17.594Z,98.65
2023-04-25T01:53:27.583Z,98.65
2023-04-25T01:53:47.686Z,98.65
2023-04-25T01:53:58.421Z,98.65
2023-04-25T01:54:07.572Z,98.65
2023-04-25T01:54:17.583Z,98.65
2023-04-25T01:54:27.581Z,98.65
2023-04-25T01:54:37.586Z,98.65
2023-04-25T01:54:47.580Z,98.65
2023-04-25T01:55:07.593Z,98.65
2023-04-25T01:55:17.580Z,98.75
2023-04-25T01:55:27.587Z,98.65
2023-04-25T01:55:37.587Z,98.75
2023-04-25T01:55:47.589Z,98.85
2023-04-25T01:55:57.587Z,98.85
2023-04-25T01:56:07.595Z,98.75
2023-04-25T01:56:17.593Z,98.75
2023-04-25T01:56:27.585Z,98.75
2023-04-25T01:56:37.586Z,98.75
2023-04-25T01:56:47.594Z,98.75
2023-04-25T01:56:57.608Z,98.65
2023-04-25T01:57:17.591Z,98.65
2023-04-25T01:57:27.603Z,98.75
2023-04-25T01:57:37.595Z,98.75
2023-04-25T01:57:47.595Z,98.75
2023-04-25T01:57:57.598Z,98.75
2023-04-25T01:58:07.593Z,98.85
2023-04-25T01:58:17.604Z,98.85
2023-04-25T01:58:27.619Z,98.75
2023-04-25T01:58:37.596Z,98.75
2023-04-25T01:58:47.608Z,98.65
2023-04-25T01:58:57.603Z,98.65
2023-04-25T01:59:07.604Z,98.54
2023-04-25T01:59:17.615Z,98.54
2023-04-25T01:59:37.605Z,98.65
2023-04-25T01:59:47.604Z,98.65
2023-04-25T01:59:57.605Z,98.65
2023-04-25T02:00:07.644Z,98.75
2023-04-25T02:00:17.606Z,98.75
2023-04-25T02:00:27.614Z,98.75
2023-04-25T02:00:37.626Z,98.75
2023-04-25T02:00:47.615Z,98.85
2023-04-25T02:00:57.613Z,98.85
2023-04-25T02:01:07.668Z,98.96
2023-04-25T02:01:17.634Z,98.96
2023-04-25T02:01:27.646Z,98.96
2023-04-25T02:01:47.703Z,98.96
2023-04-25T02:01:57.690Z,98.96
2023-04-25T02:02:07.625Z,98.96
2023-04-25T02:02:17.730Z,99.06
2023-04-25T02:02:27.717Z,99.06
2023-04-25T02:02:37.671Z,99.11
2023-04-25T02:02:47.850Z,99.11
2023-04-25T02:02:57.715Z,99.11
2023-04-25T02:03:07.730Z,99.11
2023-04-25T02:03:17.747Z,99.06
2023-04-25T02:03:27.797Z,99.11
2023-04-25T02:03:37.776Z,99.16
2023-04-25T02:03:47.804Z,99.16
2023-04-25T02:03:58.074Z,99.16
2023-04-25T02:04:07.798Z,99.21
2023-04-25T02:04:17.874Z,99.16
2023-04-25T02:04:37.716Z,99.11
2023-04-25T02:04:47.662Z,99.06
2023-04-25T02:04:57.652Z,99.11
2023-04-25T02:05:07.626Z,99.11
2023-04-25T02:05:17.630Z,99.11
2023-04-25T02:05:27.639Z,99.21
2023-04-25T02:05:37.632Z,99.16
2023-04-25T02:05:47.650Z,99.21
2023-04-25T02:05:57.629Z,99.21
2023-04-25T02:06:07.634Z,99.21
2023-04-25T02:06:27.625Z,99.16
2023-04-25T02:06:37.642Z,99.21
2023-04-25T02:06:47.628Z,99.21
2023-04-25T02:06:57.634Z,99.21
2023-04-25T02:07:07.639Z,99.21
2023-04-25T02:07:17.638Z,99.21
2023-04-25T02:07:27.650Z,99.21
2023-04-25T02:07:47.678Z,99.32
2023-04-25T02:07:57.631Z,99.32
2023-04-25T02:08:07.648Z,99.32
2023-04-25T02:08:17.636Z,99.42
2023-04-25T02:08:27.675Z,99.42
2023-04-25T02:08:37.655Z,99.42
2023-04-25T02:08:47.680Z,99.42
2023-04-25T02:09:07.644Z,99.42
2023-04-25T02:09:17.647Z,99.37
2023-04-25T02:09:27.641Z,99.42
2023-04-25T02:09:37.645Z,99.37
2023-04-25T02:09:47.641Z,99.32
2023-04-25T02:09:57.644Z,99.42
2023-04-25T02:10:07.654Z,99.42
2023-04-25T02:10:17.654Z,99.42
2023-04-25T02:10:37.650Z,99.42
2023-04-25T02:10:47.648Z,99.32
2023-04-25T02:10:57.651Z,99.32
2023-04-25T02:11:07.662Z,99.32
2023-04-25T02:11:17.659Z,99.32
2023-04-25T02:11:27.661Z,99.32
2023-04-25T02:11:37.651Z,99.32
2023-04-25T02:11:47.683Z,99.32
2023-04-25T02:11:57.672Z,99.32
2023-04-25T02:12:07.663Z,99.32
2023-04-25T02:12:17.660Z,99.32
2023-04-25T02:12:27.656Z,99.32
2023-04-25T02:12:37.658Z,99.32
2023-04-25T02:12:47.679Z,99.32
2023-04-25T02:12:57.659Z,99.32
2023-04-25T02:13:07.669Z,99.21
2023-04-25T02:13:17.669Z,99.32
2023-04-25T02:13:27.675Z,99.32
2023-04-25T02:13:37.644Z,99.32
2023-04-25T02:13:47.682Z,99.27
2023-04-25T02:13:57.662Z,99.32
2023-04-25T02:14:07.694Z,99.32
2023-04-25T02:14:17.704Z,99.32
2023-04-25T02:14:37.673Z,99.32
2023-04-25T02:14:47.675Z,99.27
2023-04-25T02:14:57.679Z,99.32
2023-04-25T02:15:07.691Z,99.27
2023-04-25T02:15:17.666Z,99.32
2023-04-25T02:15:27.677Z,99.32
2023-04-25T02:15:37.709Z,99.27
2023-04-25T02:15:47.745Z,99.27
2023-04-25T02:15:57.745Z,99.27
2023-04-25T02:16:07.807Z,99.27
2023-04-25T02:16:17.725Z,99.27
2023-04-25T02:16:27.775Z,99.27
2023-04-25T02:16:37.787Z,99.27
2023-04-25T02:16:47.723Z,99.27
2023-04-25T02:16:57.786Z,99.32
2023-04-25T02:17:07.811Z,99.27
2023-04-25T02:17:17.710Z,99.16
2023-04-25T02:17:27.713Z,99.16
2023-04-25T02:17:47.751Z,99.16